»·PEaware :: AAL291 KGJT-KCOS

AAL291 :: KGJT-KCOS

FLIGHT INFORMATION

Flight Status: Arrived
Operator:
American Airlines
More flights by this operator :: More flights under this callsign
Pilot: Alfonso U. (14209)
Aircraft: BOEING 737-800
(B738)
More flights by this aircraft type
Origin: KGJT Walker
United States
Destination: KCOS City Of Colorado Springs Mun
United States
More flights between these airports :: More routes between these airports
Route: +JNC HBU DBRY3
File this flight plan on PilotEdge
Remarks:
Altitude:
(Current/Filed)
35,000ft
Speed:
(Current/Filed)
500kts
Departed: 04-Nov-17 08:33 AM
Arrived: 04-Nov-17 09:25 AM
Distance/Time
Traveled:
179nm/0:52
Distance/Time
To Go:
Arrived

Flight Plot

Page will automatically refresh every two minutes.

Flight plan parsing failed; only flown route is shown


Map Options




Map Legend


Flown Route
Filed Route
Departure Airport
Arrival Airport
Navaid (VOR, NDB)
Fix

Horizontal Profiles

Position Reports

Time Latitude Longitude Heading Altitude Ground
Speed
04-Nov-17 08:12 39.122825 -108.528215 254 4865ft 0kts
04-Nov-17 08:13 39.122825 -108.528215 254 4865ft 0kts
04-Nov-17 08:14 39.122825 -108.528215 254 4865ft 0kts
04-Nov-17 08:15 39.122825 -108.528215 254 4865ft 0kts
04-Nov-17 08:16 39.122825 -108.528215 254 4865ft 0kts
04-Nov-17 08:17 39.122825 -108.528215 254 4865ft 0kts
04-Nov-17 08:18 39.122825 -108.528215 254 4865ft 0kts
04-Nov-17 08:19 39.122825 -108.528215 254 4865ft 0kts
04-Nov-17 08:20 39.122825 -108.528215 254 4865ft 0kts
04-Nov-17 08:21 39.122825 -108.528215 254 4865ft 0kts
04-Nov-17 08:22 39.122825 -108.528215 254 4865ft 0kts
04-Nov-17 08:23 39.122825 -108.528215 254 4865ft 0kts
04-Nov-17 08:24 39.122825 -108.528215 254 4865ft 0kts
04-Nov-17 08:25 39.122825 -108.528215 254 4865ft 0kts
04-Nov-17 08:26 39.122825 -108.528215 254 4865ft 0kts
04-Nov-17 08:27 39.122825 -108.528215 254 4865ft 0kts
04-Nov-17 08:28 39.122825 -108.528215 254 4865ft 0kts
04-Nov-17 08:29 39.122825 -108.528215 254 4865ft 0kts
04-Nov-17 08:30 39.122825 -108.528215 254 4865ft 0kts
04-Nov-17 08:31 39.123227 -108.528380 2 4865ft 7kts
04-Nov-17 08:32 39.123021 -108.525014 124 4865ft 16kts
04-Nov-17 08:33 39.120004 -108.519532 125 4865ft 21kts
04-Nov-17 08:34 39.118332 -108.516483 125 4865ft 0kts
04-Nov-17 08:35 39.118332 -108.516483 125 4865ft 0kts
04-Nov-17 08:36 39.118332 -108.516483 125 4865ft 0kts
04-Nov-17 08:37 39.119157 -108.515512 304 4865ft 17kts
04-Nov-17 08:38 39.140421 -108.555580 301 6279ft 182kts
04-Nov-17 08:39 39.169529 -108.624033 279 8801ft 249kts
04-Nov-17 08:40 39.183478 -108.712095 279 12603ft 259kts
04-Nov-17 08:41 39.204012 -108.804755 279 15477ft 295kts
04-Nov-17 08:42 39.171634 -108.866438 184 19531ft 251kts
04-Nov-17 08:43 39.098827 -108.820085 161 21588ft 303kts
04-Nov-17 08:44 39.038413 -108.729109 119 22338ft 405kts
04-Nov-17 08:45 38.989599 -108.585317 118 23645ft 455kts
04-Nov-17 08:46 38.938723 -108.435302 118 25419ft 469kts
04-Nov-17 08:47 38.858955 -108.323984 143 26917ft 459kts
04-Nov-17 08:48 38.800934 -108.170814 117 28310ft 495kts
04-Nov-17 08:49 38.750739 -108.005137 117 29613ft 506kts
04-Nov-17 08:50 38.699174 -107.835981 117 30735ft 519kts
04-Nov-17 08:51 38.646179 -107.663242 118 31763ft 531kts
04-Nov-17 08:52 38.594625 -107.494930 119 33887ft 511kts
04-Nov-17 08:53 38.543025 -107.329255 120 35075ft 512kts
04-Nov-17 08:54 38.488799 -107.156745 119 35169ft 545kts
04-Nov-17 08:55 38.449342 -106.971639 99 35160ft 558kts
04-Nov-17 08:56 38.438594 -106.774342 96 33786ft 562kts
04-Nov-17 08:57 38.428478 -106.578930 96 31858ft 553kts
04-Nov-17 08:58 38.418080 -106.386508 96 29957ft 547kts
04-Nov-17 08:59 38.407813 -106.201849 96 27955ft 519kts
04-Nov-17 09:00 38.397494 -106.021696 97 27186ft 513kts
04-Nov-17 09:01 38.386823 -105.840840 97 25767ft 501kts
04-Nov-17 09:02 38.376473 -105.668960 97 24076ft 485kts
04-Nov-17 09:03 38.367129 -105.517630 96 22289ft 469kts
04-Nov-17 09:04 38.360630 -105.414216 96 21054ft 463kts
04-Nov-17 09:05 38.350501 -105.255290 96 19072ft 448kts
04-Nov-17 09:06 38.340418 -105.100557 96 17064ft 434kts
04-Nov-17 09:07 38.330709 -104.954385 96 15121ft 420kts
04-Nov-17 09:08 38.320945 -104.810587 96 13115ft 400kts
04-Nov-17 09:09 38.339443 -104.685033 42 11930ft 345kts
04-Nov-17 09:10 38.421110 -104.662323 2 11709ft 296kts
04-Nov-17 09:11 38.502118 -104.676152 347 9741ft 297kts
04-Nov-17 09:12 38.582835 -104.686412 0 8901ft 300kts
04-Nov-17 09:13 38.664863 -104.676178 0 8953ft 282kts
04-Nov-17 09:14 38.733606 -104.681250 349 8187ft 224kts
04-Nov-17 09:15 38.788745 -104.687244 349 6907ft 204kts
04-Nov-17 09:16 38.841209 -104.673250 38 9600ft 201kts
04-Nov-17 09:17 38.881553 -104.602164 54 8976ft 256kts
04-Nov-17 09:18 38.915678 -104.527932 53 8986ft 255kts
04-Nov-17 09:19 38.922530 -104.435944 99 9934ft 278kts
04-Nov-17 09:20 38.880185 -104.368031 184 10011ft 256kts
04-Nov-17 09:21 38.817689 -104.368647 202 9975ft 200kts
04-Nov-17 09:22 38.769998 -104.400422 216 9988ft 194kts
04-Nov-17 09:23 38.722510 -104.434051 217 9232ft 202kts
04-Nov-17 09:24 38.679885 -104.470242 256 8984ft 172kts
04-Nov-17 09:25 38.694529 -104.524292 301 7983ft 156kts
04-Nov-17 09:26 38.719479 -104.572790 301 7986ft 163kts
04-Nov-17 09:27 38.722006 -104.631261 268 7857ft 189kts
04-Nov-17 09:28 38.739776 -104.686747 313 6974ft 155kts
04-Nov-17 09:29 38.780386 -104.685871 359 6238ft 157kts
04-Nov-17 09:30 38.807627 -104.686629 324 6195ft 30kts
04-Nov-17 09:31 38.807905 -104.686889 321 6195ft 0kts
04-Nov-17 09:33 38.809658 -104.691824 224 6195ft 31kts
04-Nov-17 09:34 38.811252 -104.697879 315 6195ft 31kts
04-Nov-17 09:35 38.819180 -104.707447 24 6195ft 24kts
04-Nov-17 09:36 38.819892 -104.706604 43 6195ft 0kts

Navigation Log

Ident Type
Flight plan parsing failed, navigation log unavailable